createdAt,value
2017-12-11T00:02:19.082Z,11.18
2017-12-11T00:04:46.531Z,13.05
2017-12-11T00:07:14.011Z,13.95
2017-12-11T00:09:41.483Z,11.82
2017-12-11T00:12:08.999Z,16.80
2017-12-11T00:14:37.223Z,12.30
2017-12-11T00:17:04.696Z,10.88
2017-12-11T00:19:32.159Z,18.73
2017-12-11T00:22:00.413Z,16.67
2017-12-11T00:24:28.640Z,15.27
2017-12-11T00:26:56.124Z,18.50
2017-12-11T00:29:24.359Z,12.93
2017-12-11T00:31:51.822Z,15.35
2017-12-11T00:34:20.056Z,13.50
2017-12-11T00:36:48.325Z,12.25
2017-12-11T00:39:15.872Z,14.90
2017-12-11T00:41:44.132Z,13.18
2017-12-11T00:44:12.357Z,15.38
2017-12-11T00:46:39.834Z,10.63
2017-12-11T00:49:08.093Z,12.25
2017-12-11T00:51:36.312Z,9.30
2017-12-11T00:54:03.804Z,11.27
2017-12-11T00:56:32.052Z,15.70
2017-12-11T00:59:00.280Z,11.55
2017-12-11T01:01:27.857Z,12.93
2017-12-11T01:03:56.139Z,13.00
2017-12-11T01:06:24.380Z,12.23
2017-12-11T01:08:52.632Z,13.57
2017-12-11T01:11:20.180Z,12.27
2017-12-11T01:13:48.420Z,9.15
2017-12-11T01:16:15.989Z,17.85
2017-12-11T01:18:44.240Z,13.68
2017-12-11T01:21:11.786Z,13.55
2017-12-11T01:23:39.244Z,14.38
2017-12-11T01:26:07.489Z,14.05
2017-12-11T01:28:35.728Z,14.85
2017-12-11T01:31:03.294Z,13.93
2017-12-11T01:33:31.552Z,14.10
2017-12-11T01:35:59.812Z,10.27
2017-12-11T01:38:27.275Z,15.77
2017-12-11T01:40:55.508Z,17.75
2017-12-11T01:43:22.977Z,17.60
2017-12-11T01:45:51.212Z,9.63
2017-12-11T01:48:19.484Z,13.80
2017-12-11T01:50:47.700Z,16.37
2017-12-11T01:53:15.184Z,15.02
2017-12-11T01:55:43.408Z,13.62
2017-12-11T01:58:10.886Z,13.95
2017-12-11T02:00:39.128Z,14.40
2017-12-11T02:03:06.583Z,13.50
2017-12-11T02:05:34.840Z,13.43
2017-12-11T02:08:03.116Z,14.10
2017-12-11T02:10:31.347Z,13.95
2017-12-11T02:12:58.812Z,13.43
2017-12-11T02:15:27.048Z,15.98
2017-12-11T02:17:54.605Z,14.25
2017-12-11T02:20:22.064Z,12.88
2017-12-11T02:22:50.363Z,14.45
2017-12-11T02:25:17.769Z,11.55
2017-12-11T02:27:46.012Z,14.57
2017-12-11T02:30:14.238Z,13.80
2017-12-11T02:32:41.813Z,15.02
2017-12-11T02:35:10.073Z,13.77
2017-12-11T02:37:38.296Z,17.00
2017-12-11T02:40:05.760Z,16.30
2017-12-11T02:42:33.316Z,16.15
2017-12-11T02:45:01.550Z,15.85
2017-12-11T02:47:29.009Z,14.52
2017-12-11T02:49:56.581Z,14.13
2017-12-11T02:52:24.811Z,15.75
2017-12-11T02:54:52.292Z,13.00
2017-12-11T02:57:19.822Z,14.95
2017-12-11T02:59:48.048Z,13.45
2017-12-11T03:02:15.543Z,14.48
2017-12-11T03:04:43.004Z,12.85
2017-12-11T03:07:10.466Z,14.23
2017-12-11T03:09:38.036Z,14.02
2017-12-11T03:12:06.258Z,12.88
2017-12-11T03:14:33.740Z,14.68
2017-12-11T03:17:02.000Z,13.35
2017-12-11T03:19:30.240Z,14.30
2017-12-11T03:21:57.699Z,13.55
2017-12-11T03:24:25.960Z,14.48
2017-12-11T03:26:54.204Z,13.68
2017-12-11T03:29:21.659Z,15.60
2017-12-11T03:31:49.924Z,14.38
2017-12-11T03:34:18.144Z,13.00
2017-12-11T03:36:45.620Z,12.18
2017-12-11T03:39:13.164Z,15.80
2017-12-11T03:41:41.393Z,11.10
2017-12-11T03:44:08.849Z,12.82
2017-12-11T03:46:36.324Z,11.98
2017-12-11T03:49:04.564Z,13.82
2017-12-11T03:51:32.029Z,13.32
2017-12-11T03:53:59.500Z,12.23
2017-12-11T03:56:26.956Z,13.85
2017-12-11T03:58:54.432Z,13.35
2017-12-11T04:01:21.978Z,13.93
2017-12-11T04:03:50.240Z,12.13
2017-12-11T04:06:18.490Z,14.07
2017-12-11T04:08:46.048Z,15.63
2017-12-11T04:11:14.272Z,12.43
2017-12-11T04:13:41.852Z,12.20
2017-12-11T04:16:10.073Z,14.30
2017-12-11T04:18:37.552Z,14.05
2017-12-11T04:21:05.810Z,15.43
2017-12-11T04:23:34.028Z,14.85
2017-12-11T04:26:01.521Z,13.20
2017-12-11T04:28:29.750Z,11.38
2017-12-11T04:30:58.341Z,15.40
2017-12-11T04:33:26.567Z,15.55
2017-12-11T04:35:54.028Z,14.57
2017-12-11T04:38:21.590Z,13.55
2017-12-11T04:40:49.847Z,14.75
2017-12-11T04:43:18.082Z,14.63
2017-12-11T04:45:45.751Z,15.40
2017-12-11T04:48:14.010Z,16.17
2017-12-11T04:50:42.237Z,14.85
2017-12-11T04:53:09.696Z,13.82
2017-12-11T04:55:37.364Z,13.15
2017-12-11T04:58:05.592Z,13.50
2017-12-11T05:00:33.053Z,15.52
2017-12-11T05:03:00.515Z,14.13
2017-12-11T05:05:27.980Z,16.30
2017-12-11T05:07:55.451Z,15.65
2017-12-11T05:10:22.920Z,17.08
2017-12-11T05:12:50.376Z,15.43
2017-12-11T05:15:18.604Z,14.73
2017-12-11T05:17:46.079Z,17.65
2017-12-11T05:20:14.334Z,16.70
2017-12-11T05:22:42.584Z,17.15
2017-12-11T05:25:10.824Z,17.98
2017-12-11T05:27:38.285Z,15.82
2017-12-11T05:30:05.743Z,22.27
2017-12-11T05:32:34.092Z,20.23
2017-12-11T05:35:02.355Z,20.00
2017-12-11T05:37:30.575Z,19.55
2017-12-11T05:39:58.069Z,18.27
2017-12-11T05:42:26.292Z,18.87
2017-12-11T05:44:53.856Z,15.75
2017-12-11T05:47:21.317Z,19.85
2017-12-11T05:49:48.780Z,18.73
2017-12-11T05:52:16.279Z,17.90
2017-12-11T05:54:44.504Z,19.62
2017-12-11T05:57:11.984Z,20.35
2017-12-11T05:59:40.228Z,21.83
2017-12-11T06:02:07.679Z,17.77
2017-12-11T06:04:35.948Z,20.50
2017-12-11T06:07:04.189Z,22.92
2017-12-11T06:09:31.649Z,18.42
2017-12-11T06:11:59.876Z,20.77
2017-12-11T06:14:27.449Z,16.50
2017-12-11T06:16:55.820Z,18.00
2017-12-11T06:19:24.049Z,17.33
2017-12-11T06:21:51.520Z,16.73
2017-12-11T06:24:19.775Z,17.48
2017-12-11T06:26:48.016Z,17.52
2017-12-11T06:29:15.479Z,17.45
2017-12-11T06:31:43.703Z,19.12
2017-12-11T06:34:11.181Z,20.50
2017-12-11T06:36:39.409Z,20.05
2017-12-11T06:39:06.886Z,18.52
2017-12-11T06:41:35.104Z,17.90
2017-12-11T06:44:02.583Z,19.52
2017-12-11T06:46:30.847Z,17.80
2017-12-11T06:48:59.072Z,20.77
2017-12-11T06:51:26.536Z,21.52
2017-12-11T06:53:54.089Z,18.73
2017-12-11T06:56:22.347Z,18.37
2017-12-11T06:58:50.573Z,20.10
2017-12-11T07:01:18.051Z,17.65
2017-12-11T07:03:46.318Z,17.85
2017-12-11T07:06:14.572Z,22.67
2017-12-11T07:08:42.928Z,18.60
2017-12-11T07:11:11.157Z,19.10
2017-12-11T07:13:38.732Z,19.12
2017-12-11T07:16:06.968Z,17.85
2017-12-11T07:18:34.438Z,17.58
2017-12-11T07:21:02.704Z,16.08
2017-12-11T07:23:30.960Z,18.25
2017-12-11T07:25:59.212Z,21.92
2017-12-11T07:28:27.482Z,17.15
2017-12-11T07:30:55.724Z,17.05
2017-12-11T07:33:23.281Z,16.40
2017-12-11T07:35:50.824Z,18.20
2017-12-11T07:38:19.072Z,19.50
2017-12-11T07:40:46.535Z,19.55
2017-12-11T07:43:14.755Z,17.83
2017-12-11T07:45:42.330Z,20.52
2017-12-11T07:48:10.596Z,20.83
2017-12-11T07:50:38.849Z,18.95
2017-12-11T07:53:07.112Z,16.10
2017-12-11T07:55:35.340Z,20.75
2017-12-11T07:58:02.832Z,19.67
2017-12-11T08:00:30.348Z,18.83
2017-12-11T08:02:58.576Z,17.15
2017-12-11T08:05:26.060Z,19.33
2017-12-11T08:07:54.316Z,18.55
2017-12-11T08:10:22.538Z,18.23
2017-12-11T08:12:50.022Z,17.12
2017-12-11T08:15:18.274Z,19.92
2017-12-11T08:17:45.741Z,17.42
2017-12-11T08:20:13.200Z,19.70
2017-12-11T08:22:40.679Z,19.40
2017-12-11T08:25:08.148Z,21.00
2017-12-11T08:27:35.662Z,18.25
2017-12-11T08:32:25.912Z,18.20
2017-12-11T08:34:53.375Z,20.00
2017-12-11T08:37:20.836Z,18.15
2017-12-11T08:39:49.061Z,19.77
2017-12-11T08:42:16.620Z,21.37
2017-12-11T08:44:44.084Z,21.65
2017-12-11T08:47:11.543Z,18.20
2017-12-11T08:49:39.024Z,19.10
2017-12-11T08:52:06.480Z,18.52
2017-12-11T08:54:33.928Z,19.60
2017-12-11T08:57:01.410Z,18.25
2017-12-11T08:59:28.866Z,20.02
2017-12-11T09:01:56.324Z,20.02
2017-12-11T09:04:24.376Z,20.12
2017-12-11T09:06:51.887Z,16.70
2017-12-11T09:09:20.136Z,16.77
2017-12-11T09:11:47.680Z,19.40
2017-12-11T09:14:15.236Z,18.37
2017-12-11T09:16:43.460Z,21.20
2017-12-11T09:19:10.913Z,30.95
2017-12-11T09:21:38.368Z,46.42
2017-12-11T09:24:05.919Z,41.05
2017-12-11T09:26:34.272Z,23.08
2017-12-11T09:29:02.535Z,20.48
2017-12-11T09:31:30.757Z,25.05
2017-12-11T09:33:58.216Z,20.70
2017-12-11T09:36:25.786Z,22.15
2017-12-11T09:38:53.324Z,26.15
2017-12-11T09:41:20.781Z,22.00
2017-12-11T09:43:49.026Z,19.65
2017-12-11T09:46:16.572Z,19.27
2017-12-11T09:48:44.113Z,20.35
2017-12-11T09:51:11.568Z,20.37
2017-12-11T09:53:39.809Z,21.30
2017-12-11T09:56:07.356Z,21.85
2017-12-11T09:58:34.900Z,22.67
2017-12-11T10:01:03.156Z,22.73
2017-12-11T10:03:30.704Z,22.80
2017-12-11T10:05:58.171Z,22.73
2017-12-11T10:08:25.632Z,20.58
2017-12-11T10:10:53.132Z,21.50
2017-12-11T10:13:20.585Z,20.05
2017-12-11T10:15:48.811Z,22.75
2017-12-11T10:18:16.280Z,25.75
2017-12-11T10:20:44.505Z,23.23
2017-12-11T10:23:11.957Z,21.83
2017-12-11T10:25:39.511Z,22.30
2017-12-11T10:28:06.970Z,23.42
2017-12-11T10:30:35.187Z,28.17
2017-12-11T10:33:02.649Z,34.30
2017-12-11T10:35:30.130Z,61.00
2017-12-11T10:37:57.604Z,41.45
2017-12-11T10:40:25.109Z,32.08
2017-12-11T10:42:52.650Z,32.08
2017-12-11T10:45:20.108Z,30.50
2017-12-11T10:47:48.336Z,26.98
2017-12-11T10:50:15.796Z,26.15
2017-12-11T10:52:44.057Z,29.10
2017-12-11T10:55:11.601Z,23.98
2017-12-11T10:57:39.124Z,28.30
2017-12-11T11:00:06.684Z,26.08
2017-12-11T11:02:34.227Z,30.30
2017-12-11T11:05:01.680Z,30.48
2017-12-11T11:07:29.897Z,28.12
2017-12-11T11:09:57.372Z,29.83
2017-12-11T11:12:25.635Z,24.63
2017-12-11T11:14:53.177Z,25.30
2017-12-11T11:17:21.443Z,27.95
2017-12-11T11:19:49.698Z,33.58
2017-12-11T11:22:17.941Z,26.00
2017-12-11T11:24:45.394Z,26.77
2017-12-11T11:27:13.621Z,26.02
2017-12-11T11:29:41.097Z,27.13
2017-12-11T11:32:08.553Z,29.20
2017-12-11T11:34:36.772Z,30.58
2017-12-11T11:37:04.340Z,31.15
2017-12-11T11:39:33.300Z,26.83
2017-12-11T11:42:00.756Z,28.38
2017-12-11T11:44:28.216Z,28.33
2017-12-11T11:46:56.466Z,28.23
2017-12-11T11:49:23.936Z,30.50
2017-12-11T11:51:51.443Z,26.92
2017-12-11T11:54:18.988Z,27.80
2017-12-11T11:56:46.536Z,29.27
2017-12-11T11:59:14.760Z,30.70
2017-12-11T12:01:42.224Z,31.15
2017-12-11T12:04:09.680Z,31.33
2017-12-11T12:06:37.937Z,27.00
2017-12-11T12:09:05.389Z,26.67
2017-12-11T12:11:33.633Z,27.87
2017-12-11T12:14:01.181Z,29.08
2017-12-11T12:16:28.724Z,29.85
2017-12-11T12:18:56.268Z,28.77
2017-12-11T12:21:23.720Z,30.48
2017-12-11T12:23:51.952Z,26.15
2017-12-11T12:26:19.508Z,30.80
2017-12-11T12:28:46.966Z,31.65
2017-12-11T12:31:15.211Z,22.62
2017-12-11T12:33:42.673Z,24.87
2017-12-11T12:36:10.908Z,27.05
2017-12-11T12:38:38.461Z,27.75
2017-12-11T12:41:06.720Z,27.92
2017-12-11T12:43:34.940Z,25.30
2017-12-11T12:46:02.405Z,24.58
2017-12-11T12:48:29.964Z,25.52
2017-12-11T12:50:57.522Z,26.02
2017-12-11T12:53:25.764Z,24.90
2017-12-11T12:55:54.024Z,25.98
2017-12-11T12:58:21.496Z,26.98
2017-12-11T13:00:48.948Z,24.25
2017-12-11T13:03:16.452Z,25.88
2017-12-11T13:05:43.928Z,24.75
2017-12-11T13:08:11.380Z,27.23
2017-12-11T13:10:38.893Z,26.87
2017-12-11T13:13:07.112Z,24.98
2017-12-11T13:15:34.675Z,23.92
2017-12-11T13:18:02.228Z,26.35
2017-12-11T13:20:29.764Z,27.85
2017-12-11T13:22:57.368Z,23.65
2017-12-11T13:25:24.858Z,23.27
2017-12-11T13:27:52.399Z,26.42
2017-12-11T13:30:19.856Z,25.65
2017-12-11T13:32:48.104Z,24.08
2017-12-11T13:35:16.364Z,31.83
2017-12-11T13:37:43.900Z,21.95
2017-12-11T13:40:11.381Z,26.02
2017-12-11T13:42:38.824Z,25.48
2017-12-11T13:45:06.285Z,27.23
2017-12-11T13:47:33.748Z,30.02
2017-12-11T13:50:01.232Z,26.65
2017-12-11T13:52:29.453Z,26.42
2017-12-11T13:54:57.017Z,26.85
2017-12-11T13:57:24.480Z,25.92
2017-12-11T13:59:52.716Z,25.33
2017-12-11T14:02:20.255Z,27.70
2017-12-11T14:04:47.805Z,27.60
2017-12-11T14:07:15.349Z,25.92
2017-12-11T14:09:44.480Z,25.83
2017-12-11T14:12:11.976Z,23.40
2017-12-11T14:14:40.208Z,26.02
2017-12-11T14:17:07.773Z,22.30
2017-12-11T14:19:35.323Z,23.67
2017-12-11T14:22:03.544Z,24.42
2017-12-11T14:24:30.995Z,23.50
2017-12-11T14:26:58.456Z,25.35
2017-12-11T14:29:26.005Z,21.37
2017-12-11T14:31:54.277Z,21.35
2017-12-11T14:34:22.496Z,24.87
2017-12-11T14:36:49.959Z,23.62
2017-12-11T14:39:17.508Z,25.90
2017-12-11T14:41:45.049Z,22.58
2017-12-11T14:44:12.604Z,21.80
2017-12-11T14:46:40.847Z,22.73
2017-12-11T14:49:08.392Z,22.50
2017-12-11T14:51:35.945Z,22.62
2017-12-11T14:54:03.489Z,23.35
2017-12-11T14:56:31.082Z,21.75
2017-12-11T14:58:58.544Z,25.75
2017-12-11T15:01:26.013Z,19.42
2017-12-11T15:03:53.552Z,18.87
2017-12-11T15:06:21.204Z,22.75
2017-12-11T15:08:48.804Z,22.77
2017-12-11T15:11:16.291Z,19.77
2017-12-11T15:13:43.839Z,24.77
2017-12-11T15:16:11.372Z,18.42
2017-12-11T15:18:38.832Z,20.48
2017-12-11T15:21:07.061Z,20.73
2017-12-11T15:23:34.529Z,21.65
2017-12-11T15:26:02.783Z,18.02
2017-12-11T15:28:30.244Z,19.67
2017-12-11T15:30:57.714Z,19.08
2017-12-11T15:33:25.209Z,19.67
2017-12-11T15:35:52.744Z,22.58
2017-12-11T15:38:20.204Z,24.42
2017-12-11T15:40:48.453Z,23.15
2017-12-11T15:43:16.704Z,19.05
2017-12-11T15:45:44.196Z,20.25
2017-12-11T15:48:11.650Z,18.37
2017-12-11T15:50:39.099Z,25.88
2017-12-11T15:53:06.567Z,21.50
2017-12-11T15:55:34.023Z,25.25
2017-12-11T15:58:02.281Z,23.52
2017-12-11T16:00:29.732Z,21.15
2017-12-11T16:02:57.977Z,20.80
2017-12-11T16:05:25.436Z,21.35
2017-12-11T16:07:53.684Z,21.17
2017-12-11T16:10:21.224Z,24.50
2017-12-11T16:12:48.679Z,22.98
2017-12-11T16:15:16.904Z,21.98
2017-12-11T16:17:44.377Z,23.33
2017-12-11T16:20:12.639Z,19.87
2017-12-11T16:22:40.849Z,24.52
2017-12-11T16:25:08.316Z,44.92
2017-12-11T16:27:35.769Z,35.00
2017-12-11T16:30:03.316Z,41.45
2017-12-11T16:32:30.856Z,27.13
2017-12-11T16:34:58.408Z,30.17
2017-12-11T16:37:26.649Z,30.00
2017-12-11T16:39:54.220Z,30.98
2017-12-11T16:42:22.447Z,27.70
2017-12-11T16:44:50.016Z,28.95
2017-12-11T16:47:18.247Z,31.83
2017-12-11T16:49:45.816Z,33.28
2017-12-11T16:52:14.075Z,30.20
2017-12-11T16:54:42.346Z,26.55
2017-12-11T16:57:10.605Z,23.87
2017-12-11T16:59:38.829Z,27.77
2017-12-11T17:02:06.300Z,27.50
2017-12-11T17:04:34.540Z,27.92
2017-12-11T17:07:02.000Z,29.75
2017-12-11T17:09:30.262Z,26.23
2017-12-11T17:11:58.495Z,28.30
2017-12-11T17:14:25.962Z,26.65
2017-12-11T17:16:54.226Z,29.92
2017-12-11T17:19:22.461Z,27.15
2017-12-11T17:21:49.918Z,24.73
2017-12-11T17:24:18.920Z,23.58
2017-12-11T17:26:47.145Z,26.25
2017-12-11T17:29:14.701Z,25.50
2017-12-11T17:31:42.165Z,24.83
2017-12-11T17:34:10.412Z,26.42
2017-12-11T17:36:39.803Z,26.80
2017-12-11T17:39:08.054Z,31.00
2017-12-11T17:41:36.310Z,29.67
2017-12-11T17:44:03.849Z,30.25
2017-12-11T17:46:31.393Z,26.42
2017-12-11T17:48:58.849Z,27.30
2017-12-11T17:51:27.109Z,27.92
2017-12-11T17:53:55.356Z,24.42
2017-12-11T17:56:22.895Z,23.83
2017-12-11T17:58:50.466Z,27.10
2017-12-11T18:01:18.709Z,29.37
2017-12-11T18:03:46.960Z,22.00
2017-12-11T18:06:14.505Z,23.70
2017-12-11T18:08:42.105Z,24.77
2017-12-11T18:11:09.586Z,24.73
2017-12-11T18:13:37.560Z,26.00
2017-12-11T18:16:05.810Z,29.80
2017-12-11T18:18:34.089Z,26.35
2017-12-11T18:21:01.576Z,26.87
2017-12-11T18:23:29.036Z,25.92
2017-12-11T18:25:56.496Z,28.27
2017-12-11T18:28:24.764Z,30.20
2017-12-11T18:30:53.803Z,30.08
2017-12-11T18:33:21.271Z,27.67
2017-12-11T18:35:48.733Z,28.17
2017-12-11T18:38:16.962Z,25.02
2017-12-11T18:40:44.521Z,29.73
2017-12-11T18:43:11.985Z,29.92
2017-12-11T18:45:39.447Z,33.83
2017-12-11T18:48:06.947Z,31.02
2017-12-11T18:50:34.493Z,32.58
2017-12-11T18:53:02.724Z,35.03
2017-12-11T18:55:30.188Z,34.85
2017-12-11T18:57:57.683Z,35.42
2017-12-11T19:00:25.141Z,35.33
2017-12-11T19:02:52.592Z,34.13
2017-12-11T19:05:20.794Z,33.80
2017-12-11T19:07:48.263Z,38.17
2017-12-11T19:10:15.721Z,37.40
2017-12-11T19:12:43.190Z,36.88
2017-12-11T19:15:10.747Z,35.58
2017-12-11T19:17:39.006Z,33.47
2017-12-11T19:20:06.472Z,39.72
2017-12-11T19:22:34.020Z,37.22
2017-12-11T19:25:01.563Z,35.80
2017-12-11T19:27:29.793Z,39.55
2017-12-11T19:29:57.296Z,33.17
2017-12-11T19:32:24.816Z,34.75
2017-12-11T19:34:53.072Z,35.95
2017-12-11T19:37:20.549Z,38.90
2017-12-11T19:39:48.060Z,35.78
2017-12-11T19:42:16.301Z,40.55
2017-12-11T19:44:43.779Z,45.05
2017-12-11T19:47:11.994Z,44.53
2017-12-11T19:49:39.490Z,47.03
2017-12-11T19:52:07.004Z,47.38
2017-12-11T19:54:34.553Z,44.95
2017-12-11T19:57:02.785Z,48.58
2017-12-11T19:59:30.248Z,45.67
2017-12-11T20:01:58.509Z,42.20
2017-12-11T20:04:26.800Z,36.28
2017-12-11T20:06:54.309Z,38.92
2017-12-11T20:09:21.856Z,37.25
2017-12-11T20:11:50.135Z,39.35
2017-12-11T20:14:18.362Z,36.13
2017-12-11T20:16:45.810Z,29.87
2017-12-11T20:19:13.282Z,43.33
2017-12-11T20:21:40.803Z,40.75
2017-12-11T20:24:09.059Z,38.60
2017-12-11T20:26:37.284Z,40.80
2017-12-11T20:29:04.888Z,36.08
2017-12-11T20:31:33.127Z,35.17
2017-12-11T20:34:01.360Z,40.75
2017-12-11T20:36:28.809Z,36.85
2017-12-11T20:38:56.276Z,44.28
2017-12-11T20:41:23.737Z,39.58
2017-12-11T20:43:51.240Z,39.67
2017-12-11T20:46:18.735Z,48.78
2017-12-11T20:48:46.203Z,47.17
2017-12-11T20:51:13.673Z,40.33
2017-12-11T20:53:41.227Z,43.03
2017-12-11T20:56:08.688Z,46.65
2017-12-11T20:58:36.159Z,44.92
2017-12-11T21:01:03.654Z,45.47
2017-12-11T21:03:31.873Z,51.15
2017-12-11T21:05:59.460Z,44.55
2017-12-11T21:08:26.937Z,43.22
2017-12-11T21:10:54.404Z,44.22
2017-12-11T21:13:21.943Z,44.83
2017-12-11T21:15:49.450Z,40.03
2017-12-11T21:18:16.915Z,45.65
2017-12-11T21:20:44.377Z,41.85
2017-12-11T21:23:11.927Z,40.50
2017-12-11T21:25:39.584Z,43.30
2017-12-11T21:28:07.806Z,43.20
2017-12-11T21:30:35.372Z,44.80
2017-12-11T21:33:02.831Z,48.08
2017-12-11T21:35:31.127Z,43.58
2017-12-11T21:37:58.648Z,39.35
2017-12-11T21:40:26.101Z,35.60
2017-12-11T21:42:53.608Z,34.35
2017-12-11T21:45:21.937Z,31.80
2017-12-11T21:47:49.401Z,31.55
2017-12-11T21:50:16.958Z,35.85
2017-12-11T21:52:45.201Z,30.42
2017-12-11T21:55:12.660Z,35.75
2017-12-11T21:57:40.889Z,30.60
2017-12-11T22:00:08.456Z,27.60
2017-12-11T22:02:35.908Z,30.58
2017-12-11T22:05:04.149Z,29.58
2017-12-11T22:07:31.605Z,32.50
2017-12-11T22:09:59.844Z,32.40
2017-12-11T22:12:27.304Z,31.37
2017-12-11T22:14:54.850Z,29.65
2017-12-11T22:17:22.316Z,30.27
2017-12-11T22:19:49.772Z,31.92
2017-12-11T22:22:17.348Z,40.50
2017-12-11T22:24:44.805Z,33.72
2017-12-11T22:27:13.050Z,34.30
2017-12-11T22:29:41.304Z,34.08
2017-12-11T22:32:08.760Z,37.20
2017-12-11T22:34:37.111Z,42.55
2017-12-11T22:37:04.653Z,40.05
2017-12-11T22:39:32.141Z,43.35
2017-12-11T22:41:59.606Z,45.00
2017-12-11T22:44:27.059Z,41.65
2017-12-11T22:46:54.630Z,40.20
2017-12-11T22:49:22.888Z,42.20
2017-12-11T22:51:50.425Z,37.55
2017-12-11T22:54:17.976Z,39.40
2017-12-11T22:56:45.447Z,40.72
2017-12-11T22:59:12.901Z,38.72
2017-12-11T23:01:40.396Z,38.55
2017-12-11T23:04:07.940Z,46.37
2017-12-11T23:06:35.481Z,39.08
2017-12-11T23:09:02.937Z,37.97
2017-12-11T23:11:31.180Z,37.78
2017-12-11T23:13:58.733Z,37.42
2017-12-11T23:16:26.988Z,39.97
2017-12-11T23:18:54.532Z,40.55
2017-12-11T23:21:22.005Z,38.72
2017-12-11T23:23:49.516Z,36.90
2017-12-11T23:26:19.519Z,37.35
2017-12-11T23:28:47.064Z,37.40
2017-12-11T23:31:15.319Z,33.88
2017-12-11T23:33:42.869Z,35.50
2017-12-11T23:36:11.104Z,37.45
2017-12-11T23:38:38.663Z,33.85
2017-12-11T23:41:06.125Z,40.25
2017-12-11T23:43:34.356Z,37.25
2017-12-11T23:46:01.917Z,36.67
2017-12-11T23:48:29.384Z,37.83
2017-12-11T23:50:56.900Z,37.70
2017-12-11T23:53:25.165Z,31.80
2017-12-11T23:55:53.420Z,31.85
2017-12-11T23:58:21.643Z,30.08
